»·PEaware :: N85SM KBFL-KMHV

N85SM :: KBFL-KMHV

FLIGHT INFORMATION

Flight Status: Arrived
Operator: Privately registered:
United States
More flights under this callsign
Pilot: Sebastian M. (11610)
Aircraft: CESSNA 172 SKYHAWK
(C172)
More flights by this aircraft type
Origin: KBFL Meadows
United States
Destination: KMHV Mojave
United States
More flights between these airports :: More routes between these airports
Route: +
File this flight plan on PilotEdge
Remarks: CAT 6
Altitude:
(Current/Filed)
7,500ft
Speed:
(Current/Filed)
120kts
Departed: 02-Oct-17 09:06 PM
Arrived: 02-Oct-17 09:38 PM
Distance/Time
Traveled:
50nm/0:32
Distance/Time
To Go:
Arrived

Flight Plot

Page will automatically refresh every two minutes.


Map Options




Map Legend


Flown Route
Filed Route
Departure Airport
Arrival Airport
Navaid (VOR, NDB)
Fix

Horizontal Profiles

Position Reports

Time Latitude Longitude Heading Altitude Ground
Speed
02-Oct-17 20:49 35.435700 -119.052052 180 496ft 0kts
02-Oct-17 20:50 35.435700 -119.052052 180 496ft 0kts
02-Oct-17 20:51 35.435700 -119.052052 180 496ft 0kts
02-Oct-17 20:52 35.435700 -119.052052 180 496ft 0kts
02-Oct-17 20:53 35.435700 -119.052052 180 496ft 0kts
02-Oct-17 20:54 35.435700 -119.052052 180 496ft 0kts
02-Oct-17 20:55 35.435700 -119.052052 180 496ft 0kts
02-Oct-17 20:56 35.435700 -119.052052 180 496ft 0kts
02-Oct-17 20:57 35.435700 -119.052052 180 496ft 0kts
02-Oct-17 20:58 35.435700 -119.052052 180 496ft 0kts
02-Oct-17 20:59 35.435700 -119.052052 180 496ft 0kts
02-Oct-17 21:00 35.435700 -119.052052 180 496ft 0kts
02-Oct-17 21:01 35.435700 -119.052052 180 496ft 0kts
02-Oct-17 21:02 35.435700 -119.052052 180 496ft 0kts
02-Oct-17 21:03 35.435298 -119.053629 230 496ft 9kts
02-Oct-17 21:04 35.434808 -119.054255 224 496ft 0kts
02-Oct-17 21:05 35.434498 -119.054571 189 496ft 9kts
02-Oct-17 21:06 35.430496 -119.049888 136 496ft 25kts
02-Oct-17 21:07 35.425883 -119.044596 189 496ft 18kts
02-Oct-17 21:08 35.425669 -119.044765 225 496ft 0kts
02-Oct-17 21:09 35.425859 -119.046548 307 496ft 0kts
02-Oct-17 21:10 35.435079 -119.058121 314 814ft 89kts
02-Oct-17 21:11 35.455318 -119.068598 39 1688ft 97kts
02-Oct-17 21:12 35.444878 -119.042445 128 2630ft 95kts
02-Oct-17 21:13 35.428576 -119.016265 114 3523ft 100kts
02-Oct-17 21:14 35.418452 -118.990801 115 4266ft 100kts
02-Oct-17 21:15 35.403990 -118.955803 116 5296ft 99kts
02-Oct-17 21:16 35.393355 -118.930480 116 5939ft 105kts
02-Oct-17 21:17 35.377380 -118.892796 116 6756ft 109kts
02-Oct-17 21:18 35.367825 -118.870291 117 7232ft 109kts
02-Oct-17 21:19 35.352973 -118.835405 117 7509ft 129kts
02-Oct-17 21:20 35.335629 -118.794849 117 7502ft 135kts
02-Oct-17 21:21 35.318566 -118.754864 117 7517ft 133kts
02-Oct-17 21:22 35.301339 -118.714456 117 7533ft 133kts
02-Oct-17 21:23 35.283939 -118.674615 132 7541ft 133kts
02-Oct-17 21:24 35.260048 -118.640529 123 7562ft 133kts
02-Oct-17 21:25 35.239481 -118.602612 123 7576ft 134kts
02-Oct-17 21:26 35.218864 -118.564594 123 7591ft 134kts
02-Oct-17 21:27 35.199838 -118.525377 114 7595ft 135kts
02-Oct-17 21:28 35.184188 -118.483975 114 7595ft 135kts
02-Oct-17 21:29 35.168381 -118.442145 114 7577ft 136kts
02-Oct-17 21:30 35.152576 -118.400313 114 7577ft 135kts
02-Oct-17 21:31 35.125966 -118.369695 152 7122ft 134kts
02-Oct-17 21:32 35.095264 -118.347838 152 6438ft 128kts
02-Oct-17 21:33 35.078516 -118.314282 97 5739ft 125kts
02-Oct-17 21:34 35.079900 -118.273187 84 4980ft 123kts
02-Oct-17 21:35 35.080107 -118.236668 104 4806ft 101kts
02-Oct-17 21:36 35.067298 -118.204600 127 4795ft 103kts
02-Oct-17 21:37 35.063453 -118.173371 77 4786ft 100kts
02-Oct-17 21:38 35.069761 -118.136345 79 4036ft 121kts
02-Oct-17 21:39 35.056860 -118.108807 132 3774ft 89kts
02-Oct-17 21:40 35.037686 -118.111763 235 3372ft 88kts
02-Oct-17 21:41 35.043797 -118.129736 311 2881ft 69kts
02-Oct-17 21:42 35.054080 -118.142159 312 2759ft 35kts
02-Oct-17 21:43 35.057589 -118.148145 270 2759ft 12kts
02-Oct-17 21:44 35.057121 -118.151201 11 2759ft 0kts
02-Oct-17 21:45 35.057121 -118.151201 11 2759ft 0kts

Navigation Log

Ident Type
1. KBFL Airport
2. KMHV Airport